Latest Weather Observations for Goulburn Airport

IDN60801

Issued at 2:04 pm EDT Tuesday 3 March 2015 (issued every 30 minutes, with the page automatically refreshed every 10 minutes)

About weather observations | Map of weather stations | Latest weather observations for NSW | Other Formats
Station Details ID: 070330 Name: GOULBURN AIRPORT AWS Lat: -34.81 Lon: 149.73 Height: 640.0 m
Data from the previous 72 hours. | See also: Recent months at Goulburn Airport
Date/Time
EDT
Temp
°C
App
Temp
°C
Dew
Point
Rel
Hum
%
Delta-T
°C
Wind Press
QNH
hPa
Press
MSL
hPa
Rain
since 9 am
mm
Dir
 
Spd
km/h
Gust
km/h
Spd
kts
Gust
kts
03/02:00pm 26.7 25.0 14.8 48 7.4 WSW 17 24 9 13 1015.7 1013.7 0.0
03/01:30pm 26.4 24.5 15.1 49 7.0 W 19 28 10 15 1015.9 1013.9 0.0
03/01:00pm 26.0 23.4 14.8 50 6.9 WSW 22 30 12 16 1016.1 1014.1 0.0
03/12:30pm 25.4 22.8 14.8 52 6.5 W 22 30 12 16 1016.4 1014.4 0.0
03/12:00pm 25.9 23.6 15.6 53 6.4 W 22 33 12 18 1016.9 1014.9 0.0
03/11:30am 26.0 24.3 14.8 50 6.9 WSW 17 26 9 14 1017.1 1015.1 0.0
03/11:00am 23.9 22.9 13.4 51 6.3 WNW 11 19 6 10 1017.5 1015.5 0.0
03/10:30am 22.5 20.3 13.3 56 5.5 WNW 17 26 9 14 1017.8 1015.8 0.0
03/10:00am 19.9 19.0 12.7 63 4.2 WNW 9 13 5 7 1017.4 1015.4 0.0
03/09:30am 18.6 18.1 13.7 73 2.9 NW 9 11 5 6 1017.5 1015.5 0.0
03/09:00am 15.8 15.3 12.5 81 1.9 NNW 7 9 4 5 1017.4 1015.4 0.0
03/08:30am 13.7 14.4 12.1 90 0.9 CALM 0 0 0 0 1017.4 1015.4 0.0
03/08:00am 12.2 12.6 11.3 94 0.5 CALM 0 0 0 0 1016.9 1014.9 0.0
03/07:30am 10.0 9.9 9.4 96 0.3 CALM 0 0 0 0 1016.8 1014.8 0.0
03/07:00am 9.3 9.0 8.5 95 0.4 CALM 0 0 0 0 1016.6 1014.6 0.0
03/06:30am 9.0 8.6 8.1 94 0.4 CALM 0 2 0 1 1016.2 1014.2 0.0
03/06:00am 9.6 8.2 8.8 95 0.4 SW 6 7 3 4 1016.2 1014.2 0.0
03/05:30am 9.3 8.2 8.4 94 0.5 SW 4 6 2 3 1015.9 1013.9 0.0
03/05:00am 9.7 8.1 8.8 94 0.5 S 7 9 4 5 1015.9 1013.9 0.0
03/04:30am 10.2 9.3 9.1 93 0.6 SSW 4 6 2 3 1016.0 1014.0 0.0
03/04:00am 10.5 10.4 9.4 93 0.6 CALM 0 0 0 0 1016.1 1014.1 0.0
03/03:30am 10.8 10.7 9.4 91 0.7 CALM 0 0 0 0 1016.2 1014.2 0.0
03/03:00am 11.8 11.9 10.2 90 0.8 CALM 0 0 0 0 1016.3 1014.3 0.0
03/02:30am 12.4 11.4 10.3 87 1.1 ENE 6 9 3 5 1016.8 1014.8 0.0
03/02:00am 13.7 12.8 11.2 85 1.4 NE 7 11 4 6 1017.4 1015.4 0.0
03/01:54am 13.9 13.0 11.2 84 1.5 NE 7 9 4 5 1017.6 1015.6 0.0
03/01:30am 14.4 13.6 11.6 83 1.6 ENE 7 11 4 6 1017.8 1015.8 0.0
03/01:00am 14.8 13.3 11.8 82 1.7 NE 11 15 6 8 1018.0 1016.1 0.0
03/12:30am 15.4 13.2 12.2 81 1.8 NE 15 20 8 11 1018.3 1016.3 0.0
03/12:00am 15.8 14.1 12.4 80 1.9 ENE 13 17 7 9 1018.6 1016.6 0.0
 
Date/Time
EDT
Temp
°C
App
Temp
°C
Dew
Point
Rel
Hum
%
Delta-T
°C
Wind Press
QNH
hPa
Press
MSL
hPa
Rain
since 9 am
mm
Dir
 
Spd
km/h
Gust
km/h
Spd
kts
Gust
kts
02/11:30pm 15.7 13.6 12.3 80 1.9 ENE 15 20 8 11 1018.4 1016.4 0.0
02/11:00pm 16.0 14.0 12.6 80 1.9 ENE 15 20 8 11 1018.8 1016.8 0.0
02/10:30pm 16.1 13.3 12.5 79 2.0 ENE 19 26 10 14 1018.7 1016.7 0.0
02/10:07pm 16.0 13.6 12.7 81 1.9 ENE 17 22 9 12 1018.6 1016.6 0.0
02/10:00pm 15.8 13.4 12.5 81 1.9 ENE 17 20 9 11 1018.6 1016.6 0.0
02/09:56pm 15.7 12.9 12.5 81 1.8 ENE 19 26 10 14 1018.5 1016.5 0.0
02/09:30pm 16.0 13.2 12.6 80 1.9 ENE 19 28 10 15 1018.1 1016.2 0.0
02/09:00pm 16.3 13.9 12.8 80 2.0 ENE 17 24 9 13 1018.3 1016.3 0.0
02/08:54pm 16.3 14.4 13.0 81 1.9 ENE 15 22 8 12 1018.3 1016.3 0.0
02/08:30pm 16.1 13.7 12.8 81 1.9 ENE 17 22 9 12 1017.8 1015.8 0.0
02/08:00pm 16.4 14.1 12.9 80 2.0 E 17 24 9 13 1017.7 1015.7 0.0
02/07:30pm 17.0 14.6 12.7 76 2.5 E 17 22 9 12 1018.0 1016.1 0.0
02/07:00pm 18.0 14.7 12.7 71 3.0 ENE 22 30 12 16 1017.6 1015.6 0.0
02/06:30pm 19.3 15.7 13.0 67 3.7 E 24 32 13 17 1017.4 1015.4 0.0
02/06:00pm 19.4 15.6 12.4 64 4.0 ENE 24 35 13 19 1017.2 1015.2 0.0
02/05:30pm 20.3 15.9 12.8 62 4.4 ENE 28 37 15 20 1017.1 1015.1 0.0
02/05:00pm 20.3 16.3 13.0 63 4.3 ENE 26 35 14 19 1017.1 1015.1 0.0
02/04:30pm 20.5 17.1 12.5 60 4.6 ENE 22 32 12 17 1017.3 1015.3 0.0
02/04:00pm 20.8 16.8 13.0 61 4.6 E 26 35 14 19 1017.4 1015.4 0.0
02/03:30pm 21.7 17.9 12.3 55 5.5 E 24 37 13 20 1017.4 1015.4 0.0
02/03:00pm 20.8 15.9 11.4 55 5.4 E 28 37 15 20 1017.6 1015.6 0.0
02/02:30pm 21.3 17.9 11.3 53 5.7 NE 20 33 11 18 1018.0 1016.1 0.0
02/02:00pm 21.6 17.8 11.3 52 5.9 NE 22 32 12 17 1018.5 1016.5 0.0
02/01:30pm 21.5 18.5 11.8 54 5.6 NE 19 30 10 16 1018.7 1016.7 0.0
02/01:00pm 20.1 17.1 10.5 54 5.4 NE 17 26 9 14 1019.2 1017.2 0.0
02/12:30pm 20.5 17.6 10.9 54 5.4 NE 17 24 9 13 1019.6 1017.7 0.0
02/12:00pm 19.7 16.1 10.4 55 5.2 ENE 20 32 11 17 1020.0 1018.0 0.0
02/11:30am 19.4 16.6 11.4 60 4.5 ENE 17 30 9 16 1020.2 1018.2 0.0
02/11:00am 18.7 15.2 10.3 58 4.6 NE 19 28 10 15 1020.6 1018.6 0.0
02/10:30am 17.9 14.8 10.3 61 4.2 E 17 24 9 13 1020.6 1018.6 0.0
02/10:00am 16.5 13.1 9.2 62 3.9 E 17 24 9 13 1020.6 1018.6 0.0
02/09:30am 15.4 12.7 8.9 65 3.4 ESE 13 20 7 11 1020.6 1018.6 0.0
02/09:00am 13.5 9.7 7.5 67 3.0 SE 17 20 9 11 1020.8 1018.9 0.0
02/08:30am 11.0 9.3 9.8 92 0.6 SE 9 13 5 7 1020.9 1019.0 0.0
02/08:00am 8.5 7.6 7.9 96 0.3 N 2 6 1 3 1020.7 1018.8 0.0
02/07:30am 6.6 4.5 5.9 95 0.3 SSE 6 7 3 4 1020.4 1018.4 0.0
02/07:00am 6.1 3.7 5.4 95 0.3 S 7 9 4 5 1020.2 1018.2 0.0
02/06:30am 6.5 3.8 5.8 95 0.3 SSE 9 11 5 6 1019.6 1017.7 0.0
02/06:00am 7.6 6.9 7.0 96 0.3 CALM 0 0 0 0 1019.4 1017.5 0.0
02/05:30am 6.1 5.0 5.2 94 0.4 CALM 0 0 0 0 1019.4 1017.5 0.0
02/05:00am 5.9 3.4 4.7 92 0.5 SSE 7 9 4 5 1019.1 1017.1 0.0
02/04:30am 6.5 4.1 5.3 92 0.6 SSW 7 9 4 5 1019.0 1017.0 0.0
02/04:00am 7.2 5.0 5.3 88 0.9 SW 6 9 3 5 1019.1 1017.1 0.0
02/03:30am 8.9 6.5 6.9 87 1.0 ESE 9 11 5 6 1018.6 1016.6 0.0
02/03:00am 10.3 7.8 8.1 86 1.1 E 11 13 6 7 1018.7 1016.7 0.0
02/02:30am 11.1 8.3 8.5 84 1.3 ESE 13 17 7 9 1019.0 1017.0 0.0
02/02:00am 11.7 8.6 8.7 82 1.5 ESE 15 20 8 11 1019.1 1017.1 0.0
02/01:30am 12.0 8.9 8.7 80 1.7 SE 15 20 8 11 1019.0 1017.0 0.0
02/01:00am 12.8 8.7 8.5 75 2.2 ESE 20 32 11 17 1018.8 1016.8 0.0
02/12:30am 14.2 9.5 9.4 73 2.5 ESE 24 32 13 17 1018.4 1016.4 0.0
02/12:02am 14.4 11.3 10.4 77 2.2 ESE 17 30 9 16 1018.3 1016.3 0.0
02/12:00am 14.4 11.4 10.6 78 2.1 ESE 17 20 9 11 1018.3 1016.3 0.0
 
Date/Time
EDT
Temp
°C
App
Temp
°C
Dew
Point
Rel
Hum
%
Delta-T
°C
Wind Press
QNH
hPa
Press
MSL
hPa
Rain
since 9 am
mm
Dir
 
Spd
km/h
Gust
km/h
Spd
kts
Gust
kts
01/11:30pm 14.6 10.6 10.6 77 2.2 ESE 22 32 12 17 1018.3 1016.3 0.0
01/11:05pm 14.7 11.1 10.7 77 2.2 ESE 20 28 11 15 1018.5 1016.5 0.0
01/11:00pm 14.8 11.3 10.8 77 2.2 ESE 20 28 11 15 1018.5 1016.5 0.0
01/10:30pm 14.9 11.6 10.9 77 2.2 ESE 19 24 10 13 1018.3 1016.3 0.0
01/10:00pm 15.0 11.5 11.0 77 2.2 ESE 20 26 11 14 1017.9 1016.0 0.0
01/09:50pm 15.0 11.8 11.2 78 2.1 ESE 19 28 10 15 1017.8 1015.8 0.0
01/09:30pm 15.0 10.8 11.2 78 2.1 ESE 24 32 13 17 1017.4 1015.4 0.0
01/09:00pm 15.1 11.4 11.5 79 2.0 ESE 22 28 12 15 1016.8 1014.8 0.0
01/08:30pm 15.2 11.5 11.6 79 2.0 ESE 22 33 12 18 1016.1 1014.1 0.0
01/08:00pm 15.4 11.8 11.8 79 2.0 ESE 22 32 12 17 1015.4 1013.4 0.0
01/07:30pm 15.5 11.7 12.3 81 1.8 SE 24 32 13 17 1014.5 1012.5 0.0
01/07:00pm 16.2 12.2 13.1 82 1.8 ESE 26 37 14 20 1013.6 1011.5 0.0
01/06:30pm 17.1 12.2 13.6 80 2.0 SE 32 41 17 22 1012.6 1010.6 0.0
01/06:12pm 19.3 14.8 14.8 75 2.7 ESE 32 39 17 21 1011.9 1009.8 0.0
01/06:00pm 20.5 16.9 15.3 72 3.2 ESE 28 37 15 20 1011.4 1009.4 0.0
01/05:30pm 22.4 20.5 15.7 66 4.1 ESE 20 28 11 15 1010.5 1008.4 0.0
01/05:00pm 23.4 21.6 16.0 63 4.6 E 20 28 11 15 1010.0 1007.9 0.0
01/04:30pm 24.1 21.6 17.1 65 4.4 ESE 26 35 14 19 1009.6 1007.6 0.0
01/04:00pm 22.2 18.3 15.5 66 4.1 SE 30 39 16 21 1009.3 1007.2 0.0
01/03:44pm 22.5 17.2 15.4 64 4.4 SE 37 56 20 30 1009.0 1006.9 0.0
01/03:36pm 22.8 17.4 13.8 57 5.4 S 35 56 19 30 1009.0 1006.9 0.0
01/03:32pm 25.0 20.0 13.5 48 6.9 SW 32 50 17 27 1008.9 1006.8 0.0
01/03:30pm 29.7 24.3 10.8 31 11.1 WSW 30 50 16 27 1008.7 1006.6 0.0
01/03:03pm 28.1 21.7 10.8 34 10.1 W 35 54 19 29 1008.7 1006.6 0.0
01/03:00pm 28.2 21.0 10.4 33 10.4 W 39 54 21 29 1008.7 1006.6 0.0
01/02:40pm 30.8 24.4 10.7 29 11.9 W 35 54 19 29 1008.3 1006.1 0.0
01/02:30pm 30.3 24.6 11.3 31 11.3 W 32 44 17 24 1008.0 1005.9 0.0
01/02:00pm 26.5 23.5 13.6 45 7.8 NW 22 28 12 15 1008.4 1006.3 0.0
01/01:44pm 25.6 22.2 12.4 43 7.8 NW 22 37 12 20 1008.3 1006.1 0.0
01/01:31pm 26.4 19.9 13.9 46 7.6 WNW 41 65 22 35 1008.3 1006.1 0.0
01/01:30pm 26.8 20.7 14.2 46 7.7 WNW 39 65 21 35 1008.3 1006.1 0.0
01/01:13pm 28.1 24.1 15.1 45 8.1 WNW 30 48 16 26 1008.1 1006.0 0.0
01/01:00pm 26.6 24.7 17.7 58 5.8 WNW 24 39 13 21 1008.4 1006.3 0.0
01/12:44pm 29.6 23.8 13.8 38 9.7 WNW 37 59 20 32 1008.4 1006.3 0.0
01/12:39pm 29.7 24.7 15.0 40 9.2 WNW 35 46 19 25 1008.5 1006.4 0.0
01/12:30pm 29.8 24.1 15.1 40 9.2 W 39 54 21 29 1008.7 1006.6 0.0
01/12:20pm 30.1 25.6 15.0 40 9.5 WNW 32 50 17 27 1008.8 1006.7 0.0
01/12:00pm 28.5 22.5 15.4 45 8.2 NW 41 52 22 28 1008.8 1006.7 0.0
01/11:30am 27.8 23.6 15.8 48 7.6 NW 32 50 17 27 1008.5 1006.4 0.0
01/11:00am 27.8 22.4 16.1 49 7.4 NW 39 52 21 28 1008.5 1006.4 0.0
01/10:30am 28.1 22.3 17.0 51 7.1 NW 43 57 23 31 1008.8 1006.0 0.0
01/10:06am 27.4 22.5 16.4 51 7.0 WNW 37 56 20 30 1008.9 1006.1 0.0
01/10:00am 27.1 21.1 16.4 52 6.8 WNW 43 59 23 32 1009.0 1006.2 0.0
01/09:43am 27.1 23.1 16.7 53 6.6 WNW 33 52 18 28 1008.9 1006.1 0.0
01/09:30am 26.5 21.5 16.1 52 6.6 WNW 37 54 20 29 1008.9 1006.1 0.0
01/09:04am 24.4 20.0 15.1 56 5.7 WNW 32 50 17 27 1008.7 1005.8 0.0
01/09:00am 24.5 19.9 14.6 54 6.1 WNW 32 43 17 23 1008.7 1005.8 0.0
01/08:50am 24.8 21.1 14.9 54 6.1 NW 28 46 15 25 1008.6 1005.7 0.0
01/08:30am 24.3 23.2 15.2 57 5.6 NNW 15 24 8 13 1008.7 1005.8 0.0
01/08:00am 21.8 20.7 14.4 63 4.5 WNW 13 19 7 10 1008.7 1005.8 0.0
01/07:30am 20.3 18.8 14.2 68 3.6 NNW 15 22 8 12 1008.3 1005.4 0.0
01/07:15am 18.0 17.8 15.6 86 1.5 NW 11 17 6 9 1008.3 1005.4 0.0
01/07:00am 12.7 13.1 11.4 92 0.7 CALM 0 6 0 3 1008.1 1005.3 0.0
01/06:30am 12.1 12.4 10.8 92 0.7 CALM 0 0 0 0 1007.7 1004.9 0.0
01/06:00am 11.5 10.4 10.1 91 0.7 ESE 6 7 3 4 1007.5 1004.7 0.0
01/05:30am 12.3 12.3 11.0 92 0.7 S 2 6 1 3 1007.5 1004.7 0.0
01/05:00am 11.8 10.8 10.4 91 0.7 SE 6 7 3 4 1007.4 1004.6 0.0
01/04:30am 12.6 12.7 11.5 93 0.6 SSW 2 7 1 4 1007.3 1004.4 0.0
01/04:00am 12.4 12.7 10.8 90 0.9 CALM 0 0 0 0 1007.4 1004.6 0.0
01/03:30am 13.8 14.6 12.7 93 0.6 CALM 0 0 0 0 1007.5 1004.7 0.0
01/03:00am 13.6 14.3 12.3 92 0.7 CALM 0 0 0 0 1007.9 1005.1 0.0
01/02:30am 13.9 14.7 12.5 91 0.8 CALM 0 0 0 0 1008.1 1005.3 0.0
01/02:00am 15.3 16.4 13.5 89 1.0 CALM 0 0 0 0 1008.6 1005.7 0.0
01/01:30am 15.4 16.6 13.9 91 0.9 CALM 0 0 0 0 1008.8 1006.0 0.0
01/01:00am 16.2 16.1 14.0 87 1.3 N 7 9 4 5 1009.1 1006.3 0.0
01/12:30am 17.1 18.2 14.7 86 1.4 NNW 2 7 1 4 1009.2 1006.4 0.0
01/12:00am 16.8 17.4 14.3 85 1.5 NNW 4 7 2 4 1009.4 1006.6 0.0
 
Date/Time
EDT
Temp
°C
App
Temp
°C
Dew
Point
Rel
Hum
%
Delta-T
°C
Wind Press
QNH
hPa
Press
MSL
hPa
Rain
since 9 am
mm
Dir
 
Spd
km/h
Gust
km/h
Spd
kts
Gust
kts
28/11:30pm 18.4 18.8 14.7 79 2.2 N 6 7 3 4 1009.6 1006.8 0.0
28/11:00pm 20.0 19.5 15.8 77 2.6 NNE 13 17 7 9 1009.9 1007.0 0.0
28/10:30pm 20.4 20.0 16.2 77 2.6 NNE 13 17 7 9 1010.1 1007.2 0.0
28/10:00pm 20.1 19.1 15.5 75 2.8 NNE 15 17 8 9 1010.1 1007.2 0.0
28/09:30pm 21.4 20.1 15.9 71 3.4 NE 17 22 9 12 1010.1 1007.2 0.0
28/09:00pm 22.4 20.9 16.2 68 3.9 NE 19 22 10 12 1009.9 1007.0 0.0
28/08:30pm 23.4 21.9 16.7 66 4.2 ENE 20 26 11 14 1009.5 1006.7 0.0
28/08:00pm 23.9 22.6 16.9 65 4.4 ENE 19 28 10 15 1009.3 1006.5 0.0
28/07:30pm 24.9 24.1 14.1 51 6.6 NE 11 17 6 9 1009.0 1006.2 0.0
28/07:00pm 27.5 25.4 8.4 30 10.7 NW 9 13 5 7 1008.7 1005.8 0.0
28/06:30pm 29.6 26.8 6.9 24 12.5 NW 11 15 6 8 1008.6 1005.7 0.0
28/06:00pm 30.4 27.4 7.6 24 12.8 WNW 13 17 7 9 1008.5 1005.6 0.0
28/05:30pm 30.0 27.6 7.2 24 12.7 WNW 9 19 5 10 1008.6 1005.7 0.0
28/05:00pm 29.7 25.8 8.7 27 12.0 W 19 32 10 17 1008.9 1006.1 0.0
28/04:30pm 30.7 26.4 7.8 24 12.9 WNW 20 32 11 17 1009.0 1006.2 0.0
28/04:00pm 29.7 25.5 7.6 25 12.4 W 19 32 10 17 1009.2 1006.4 0.0
28/03:30pm 30.1 27.6 9.6 28 11.8 WSW 13 22 7 12 1009.2 1006.4 0.0
28/03:00pm 30.2 26.5 8.0 25 12.5 WNW 17 30 9 16 1009.4 1006.6 0.0
28/02:30pm 28.7 26.0 8.9 29 11.2 NW 13 22 7 12 1009.9 1007.0 0.0

Other Formats:

Comma delimited format used in spreadsheet applications
http://www.bom.gov.au/fwo/IDN60801/IDN60801.95716.axf

JavaScript Object Notation format (JSON) in row-major order
http://www.bom.gov.au/fwo/IDN60801/IDN60801.95716.json